sensor_id;sensor_type;location;lat;lon;timestamp;pressure;altitude;pressure_sealevel;temperature;humidity
61109;BME280;46995;55.740;37.402;2023-04-09T00:01:04;100496.44;;;8.01;50.56
61109;BME280;46995;55.740;37.402;2023-04-09T00:03:30;100494.66;;;8.02;50.14
61109;BME280;46995;55.740;37.402;2023-04-09T00:05:56;100500.69;;;8.04;50.37
61109;BME280;46995;55.740;37.402;2023-04-09T00:08:22;100488.44;;;8.03;50.51
61109;BME280;46995;55.740;37.402;2023-04-09T00:10:48;100497.00;;;8.06;50.22
61109;BME280;46995;55.740;37.402;2023-04-09T00:13:14;100495.13;;;8.08;50.25
61109;BME280;46995;55.740;37.402;2023-04-09T00:15:39;100494.13;;;8.11;50.26
61109;BME280;46995;55.740;37.402;2023-04-09T00:18:05;100500.13;;;8.13;50.08
61109;BME280;46995;55.740;37.402;2023-04-09T00:20:30;100493.91;;;8.14;50.68
61109;BME280;46995;55.740;37.402;2023-04-09T00:22:56;100498.25;;;8.15;50.31
61109;BME280;46995;55.740;37.402;2023-04-09T00:25:22;100490.34;;;8.15;50.42
61109;BME280;46995;55.740;37.402;2023-04-09T00:27:48;100503.41;;;8.17;50.87
61109;BME280;46995;55.740;37.402;2023-04-09T00:30:14;100492.22;;;8.13;50.56
61109;BME280;46995;55.740;37.402;2023-04-09T00:32:40;100501.91;;;8.13;50.46
61109;BME280;46995;55.740;37.402;2023-04-09T00:35:06;100495.78;;;8.12;50.93
61109;BME280;46995;55.740;37.402;2023-04-09T00:37:31;100501.81;;;8.14;50.71
61109;BME280;46995;55.740;37.402;2023-04-09T00:39:57;100491.28;;;8.14;50.76
61109;BME280;46995;55.740;37.402;2023-04-09T00:42:22;100494.69;;;8.16;51.27
61109;BME280;46995;55.740;37.402;2023-04-09T00:44:48;100501.72;;;8.16;50.55
61109;BME280;46995;55.740;37.402;2023-04-09T00:47:14;100495.63;;;8.15;51.12
61109;BME280;46995;55.740;37.402;2023-04-09T00:49:40;100497.31;;;8.16;50.98
61109;BME280;46995;55.740;37.402;2023-04-09T00:52:06;100494.69;;;8.16;51.13
61109;BME280;46995;55.740;37.402;2023-04-09T00:54:35;100504.25;;;8.17;50.86
61109;BME280;46995;55.740;37.402;2023-04-09T00:57:00;100496.47;;;8.16;50.67
61109;BME280;46995;55.740;37.402;2023-04-09T00:59:27;100492.22;;;8.13;50.60
61109;BME280;46995;55.740;37.402;2023-04-09T01:01:53;100490.34;;;8.15;51.07
61109;BME280;46995;55.740;37.402;2023-04-09T01:04:18;100492.22;;;8.13;50.53
61109;BME280;46995;55.740;37.402;2023-04-09T01:07:10;100491.56;;;8.09;50.54
61109;BME280;46995;55.740;37.402;2023-04-09T01:09:34;100489.03;;;8.08;51.15
61109;BME280;46995;55.740;37.402;2023-04-09T01:12:23;100485.63;;;8.06;51.06
61109;BME280;46995;55.740;37.402;2023-04-09T01:14:56;100496.34;;;8.03;51.09
61109;BME280;46995;55.740;37.402;2023-04-09T01:17:32;100494.66;;;8.02;51.08
61109;BME280;46995;55.740;37.402;2023-04-09T01:20:09;100496.44;;;8.01;51.31
61109;BME280;46995;55.740;37.402;2023-04-09T01:25:03;100494.66;;;8.02;51.21
61109;BME280;46995;55.740;37.402;2023-04-09T01:27:45;100496.34;;;8.03;51.32
61109;BME280;46995;55.740;37.402;2023-04-09T01:30:11;100493.72;;;8.03;51.41
61109;BME280;46995;55.740;37.402;2023-04-09T01:32:38;100491.84;;;8.05;51.35
61109;BME280;46995;55.740;37.402;2023-04-09T01:35:04;100502.19;;;8.08;51.44
61109;BME280;46995;55.740;37.402;2023-04-09T01:37:33;100497.75;;;8.08;51.69
61109;BME280;46995;55.740;37.402;2023-04-09T01:39:59;100494.28;;;8.08;51.85
61109;BME280;46995;55.740;37.402;2023-04-09T01:42:25;100499.75;;;8.05;51.31
61109;BME280;46995;55.740;37.402;2023-04-09T01:44:51;100497.19;;;8.03;51.29
61109;BME280;46995;55.740;37.402;2023-04-09T01:47:17;100498.03;;;8.04;51.51
61109;BME280;46995;55.740;37.402;2023-04-09T01:49:44;100501.41;;;8.06;51.52
61109;BME280;46995;55.740;37.402;2023-04-09T01:52:10;100499.75;;;8.05;51.44
61109;BME280;46995;55.740;37.402;2023-04-09T01:54:36;100495.41;;;8.04;51.94
61109;BME280;46995;55.740;37.402;2023-04-09T01:57:01;100505.09;;;8.03;52.24
61109;BME280;46995;55.740;37.402;2023-04-09T01:59:27;100499.53;;;8.08;51.59
61109;BME280;46995;55.740;37.402;2023-04-09T02:01:53;100499.25;;;8.13;51.74
61109;BME280;46995;55.740;37.402;2023-04-09T02:04:43;100494.13;;;8.11;51.46
61109;BME280;46995;55.740;37.402;2023-04-09T02:07:09;100504.81;;;8.08;51.70
61109;BME280;46995;55.740;37.402;2023-04-09T02:09:39;100494.47;;;8.05;51.73
61109;BME280;46995;55.740;37.402;2023-04-09T02:12:09;100493.91;;;8.00;51.83
61109;BME280;46995;55.740;37.402;2023-04-09T02:14:36;100496.72;;;7.97;51.66
61109;BME280;46995;55.740;37.402;2023-04-09T02:17:03;100502.91;;;7.96;51.92
61109;BME280;46995;55.740;37.402;2023-04-09T02:19:41;100499.47;;;7.95;52.22
61109;BME280;46995;55.740;37.402;2023-04-09T02:22:07;100500.38;;;7.94;52.41
61109;BME280;46995;55.740;37.402;2023-04-09T02:24:33;100488.94;;;7.95;52.52
61109;BME280;46995;55.740;37.402;2023-04-09T02:26:59;100496.72;;;7.97;51.92
61109;BME280;46995;55.740;37.402;2023-04-09T02:29:24;100495.00;;;7.96;52.26
61109;BME280;46995;55.740;37.402;2023-04-09T02:31:50;100492.50;;;7.94;52.78
61109;BME280;46995;55.740;37.402;2023-04-09T02:34:17;100491.56;;;7.95;52.55
61109;BME280;46995;55.740;37.402;2023-04-09T02:36:43;100496.53;;;8.00;52.59
61109;BME280;46995;55.740;37.402;2023-04-09T02:39:08;100504.03;;;8.06;52.19
61109;BME280;46995;55.740;37.402;2023-04-09T02:41:34;100496.84;;;8.09;52.55
61109;BME280;46995;55.740;37.402;2023-04-09T02:44:00;100494.13;;;8.11;52.09
61109;BME280;46995;55.740;37.402;2023-04-09T02:46:25;100495.91;;;8.11;52.42
61109;BME280;46995;55.740;37.402;2023-04-09T02:48:51;100485.75;;;8.04;52.40
61109;BME280;46995;55.740;37.402;2023-04-09T02:51:17;100497.13;;;8.05;52.61
61109;BME280;46995;55.740;37.402;2023-04-09T02:53:43;100496.16;;;8.06;52.97
61109;BME280;46995;55.740;37.402;2023-04-09T02:56:10;100487.16;;;8.10;53.02
61109;BME280;46995;55.740;37.402;2023-04-09T02:58:35;100492.22;;;8.13;52.62
61109;BME280;46995;55.740;37.402;2023-04-09T03:01:01;100491.38;;;8.13;52.08
61109;BME280;46995;55.740;37.402;2023-04-09T03:03:27;100491.19;;;8.16;51.94
61109;BME280;46995;55.740;37.402;2023-04-09T03:05:53;100496.19;;;8.20;52.14
61109;BME280;46995;55.740;37.402;2023-04-09T03:08:18;100495.25;;;8.21;52.42
61109;BME280;46995;55.740;37.402;2023-04-09T03:10:45;100501.53;;;8.19;52.36
61109;BME280;46995;55.740;37.402;2023-04-09T03:13:10;100497.47;;;8.13;52.70
61109;BME280;46995;55.740;37.402;2023-04-09T03:15:36;100504.63;;;8.11;52.92
61109;BME280;46995;55.740;37.402;2023-04-09T03:18:01;100504.63;;;8.11;52.60
61109;BME280;46995;55.740;37.402;2023-04-09T03:20:27;100502.09;;;8.09;53.26
61109;BME280;46995;55.740;37.402;2023-04-09T03:22:52;100501.25;;;8.09;53.09
61109;BME280;46995;55.740;37.402;2023-04-09T03:25:28;100500.47;;;8.07;53.14
61109;BME280;46995;55.740;37.402;2023-04-09T03:27:54;100499.75;;;8.05;53.17
61109;BME280;46995;55.740;37.402;2023-04-09T03:30:37;100501.41;;;8.06;53.05
61109;BME280;46995;55.740;37.402;2023-04-09T03:33:04;100503.09;;;8.07;53.19
61109;BME280;46995;55.740;37.402;2023-04-09T03:35:35;100499.53;;;8.08;53.36
61109;BME280;46995;55.740;37.402;2023-04-09T03:38:01;100501.03;;;8.12;53.22
61109;BME280;46995;55.740;37.402;2023-04-09T03:40:27;100499.09;;;8.16;53.24
61109;BME280;46995;55.740;37.402;2023-04-09T03:42:54;100501.53;;;8.19;53.47
61109;BME280;46995;55.740;37.402;2023-04-09T03:45:19;100501.31;;;8.22;53.22
61109;BME280;46995;55.740;37.402;2023-04-09T03:47:48;100504.38;;;8.30;53.20
61109;BME280;46995;55.740;37.402;2023-04-09T03:50:16;100510.69;;;8.41;53.20
61109;BME280;46995;55.740;37.402;2023-04-09T03:52:50;100503.06;;;8.51;53.00
61109;BME280;46995;55.740;37.402;2023-04-09T03:55:17;100498.28;;;8.58;52.51
61109;BME280;46995;55.740;37.402;2023-04-09T03:57:42;100505.75;;;8.64;52.68
61109;BME280;46995;55.740;37.402;2023-04-09T04:00:12;100502.97;;;8.67;52.71
61109;BME280;46995;55.740;37.402;2023-04-09T04:03:09;100502.56;;;8.73;51.83
61109;BME280;46995;55.740;37.402;2023-04-09T04:05:51;100501.34;;;8.78;52.76
61109;BME280;46995;55.740;37.402;2023-04-09T04:08:17;100499.91;;;8.87;52.11
61109;BME280;46995;55.740;37.402;2023-04-09T04:10:43;100497.63;;;8.95;52.24
61109;BME280;46995;55.740;37.402;2023-04-09T04:13:11;100500.63;;;9.03;52.29
61109;BME280;46995;55.740;37.402;2023-04-09T04:15:46;100510.38;;;9.15;52.60
61109;BME280;46995;55.740;37.402;2023-04-09T04:18:15;100486.78;;;9.26;52.00
61109;BME280;46995;55.740;37.402;2023-04-09T04:20:44;100495.91;;;9.35;51.88
61109;BME280;46995;55.740;37.402;2023-04-09T04:23:12;100494.84;;;9.38;51.96
61109;BME280;46995;55.740;37.402;2023-04-09T04:25:46;100484.28;;;9.38;51.52
61109;BME280;46995;55.740;37.402;2023-04-09T04:28:16;100485.25;;;9.37;51.59
61109;BME280;46995;55.740;37.402;2023-04-09T04:30:41;100487.34;;;9.31;51.86
61109;BME280;46995;55.740;37.402;2023-04-09T04:33:07;100489.25;;;9.29;51.71
61109;BME280;46995;55.740;37.402;2023-04-09T04:35:48;100488.47;;;9.27;51.63
61109;BME280;46995;55.740;37.402;2023-04-09T04:38:34;100487.53;;;9.28;51.97
61109;BME280;46995;55.740;37.402;2023-04-09T04:41:03;100482.91;;;9.32;51.89
61109;BME280;46995;55.740;37.402;2023-04-09T04:43:33;100487.91;;;9.37;51.95
61109;BME280;46995;55.740;37.402;2023-04-09T04:45:59;100488.44;;;9.42;52.02
61109;BME280;46995;55.740;37.402;2023-04-09T04:48:27;100481.63;;;9.52;51.87
61109;BME280;46995;55.740;37.402;2023-04-09T04:50:54;100472.94;;;9.50;51.38
61109;BME280;46995;55.740;37.402;2023-04-09T04:53:22;100486.72;;;9.67;51.18
61109;BME280;46995;55.740;37.402;2023-04-09T04:55:50;100481.13;;;9.72;51.54
61109;BME280;46995;55.740;37.402;2023-04-09T04:58:22;100475.31;;;9.79;51.45
61109;BME280;46995;55.740;37.402;2023-04-09T05:00:52;100486.59;;;9.82;51.45
61109;BME280;46995;55.740;37.402;2023-04-09T05:03:21;100482.91;;;9.84;51.30
61109;BME280;46995;55.740;37.402;2023-04-09T05:06:21;100495.06;;;9.87;51.16
61109;BME280;46995;55.740;37.402;2023-04-09T05:08:47;100481.25;;;9.83;51.31
61109;BME280;46995;55.740;37.402;2023-04-09T05:11:13;100491.97;;;9.80;51.22
61109;BME280;46995;55.740;37.402;2023-04-09T05:13:43;100468.34;;;9.66;51.30
61109;BME280;46995;55.740;37.402;2023-04-09T05:16:14;100492.59;;;9.71;51.37
61109;BME280;46995;55.740;37.402;2023-04-09T05:18:41;100489.44;;;9.66;52.00
61109;BME280;46995;55.740;37.402;2023-04-09T05:21:07;100485.84;;;9.67;51.70
61109;BME280;46995;55.740;37.402;2023-04-09T05:23:33;100490.50;;;9.76;51.80
61109;BME280;46995;55.740;37.402;2023-04-09T05:25:59;100489.88;;;9.85;51.67
61109;BME280;46995;55.740;37.402;2023-04-09T05:28:41;100493.56;;;9.95;51.07
61109;BME280;46995;55.740;37.402;2023-04-09T05:31:16;100500.88;;;10.04;50.56
61109;BME280;46995;55.740;37.402;2023-04-09T05:33:50;100502.03;;;10.13;50.72
61109;BME280;46995;55.740;37.402;2023-04-09T05:36:22;100501.34;;;10.24;50.71
61109;BME280;46995;55.740;37.402;2023-04-09T05:38:47;100502.16;;;10.37;50.82
61109;BME280;46995;55.740;37.402;2023-04-09T05:41:17;100503.00;;;10.50;50.48
61109;BME280;46995;55.740;37.402;2023-04-09T05:43:59;100504.03;;;10.60;50.29
61109;BME280;46995;55.740;37.402;2023-04-09T05:46:25;100504.91;;;10.60;50.15
61109;BME280;46995;55.740;37.402;2023-04-09T05:48:51;100504.56;;;10.65;50.21
61109;BME280;46995;55.740;37.402;2023-04-09T05:51:18;100504.22;;;10.70;50.16
61109;BME280;46995;55.740;37.402;2023-04-09T05:53:45;100507.28;;;10.76;49.88
61109;BME280;46995;55.740;37.402;2023-04-09T05:56:14;100511.41;;;10.80;49.81
61109;BME280;46995;55.740;37.402;2023-04-09T05:58:47;100507.81;;;10.81;49.81
61109;BME280;46995;55.740;37.402;2023-04-09T06:01:13;100508.84;;;10.79;49.96
61109;BME280;46995;55.740;37.402;2023-04-09T06:03:38;100509.41;;;10.71;50.10
61109;BME280;46995;55.740;37.402;2023-04-09T06:06:04;100514.19;;;10.66;50.33
61109;BME280;46995;55.740;37.402;2023-04-09T06:08:30;100510.38;;;10.57;50.54
61109;BME280;46995;55.740;37.402;2023-04-09T06:10:55;100518.84;;;10.50;50.43
61109;BME280;46995;55.740;37.402;2023-04-09T06:13:21;100513.91;;;10.45;50.58
61109;BME280;46995;55.740;37.402;2023-04-09T06:15:47;100522.66;;;10.46;50.50
61109;BME280;46995;55.740;37.402;2023-04-09T06:18:13;100520.75;;;10.48;50.56
61109;BME280;46995;55.740;37.402;2023-04-09T06:20:39;100528.56;;;10.49;50.51
61109;BME280;46995;55.740;37.402;2023-04-09T06:23:05;100524.88;;;10.52;50.42
61109;BME280;46995;55.740;37.402;2023-04-09T06:25:31;100532.56;;;10.55;50.52
61109;BME280;46995;55.740;37.402;2023-04-09T06:27:56;100523.47;;;10.59;50.27
61109;BME280;46995;55.740;37.402;2023-04-09T06:30:23;100531.72;;;10.67;50.30
61109;BME280;46995;55.740;37.402;2023-04-09T06:32:49;100526.31;;;10.81;50.31
61109;BME280;46995;55.740;37.402;2023-04-09T06:35:15;100527.63;;;10.99;50.06
61109;BME280;46995;55.740;37.402;2023-04-09T06:37:40;100528.94;;;11.18;49.48
61109;BME280;46995;55.740;37.402;2023-04-09T06:40:06;100527.06;;;11.31;49.42
61109;BME280;46995;55.740;37.402;2023-04-09T06:42:32;100529.78;;;11.42;49.30
61109;BME280;46995;55.740;37.402;2023-04-09T06:45:10;100525.50;;;11.52;49.38
61109;BME280;46995;55.740;37.402;2023-04-09T06:47:36;100530.97;;;11.62;49.22
61109;BME280;46995;55.740;37.402;2023-04-09T06:50:03;100531.41;;;11.79;48.93
61109;BME280;46995;55.740;37.402;2023-04-09T06:52:30;100529.91;;;11.99;48.58
61109;BME280;46995;55.740;37.402;2023-04-09T06:54:56;100520.69;;;12.16;48.59
61109;BME280;46995;55.740;37.402;2023-04-09T06:57:21;100522.84;;;12.22;48.47
61109;BME280;46995;55.740;37.402;2023-04-09T06:59:48;100524.78;;;12.20;48.21
61109;BME280;46995;55.740;37.402;2023-04-09T07:02:14;100527.66;;;12.17;47.84
61109;BME280;46995;55.740;37.402;2023-04-09T07:04:41;100517.31;;;12.14;48.37
61109;BME280;46995;55.740;37.402;2023-04-09T07:07:06;100528.25;;;12.20;48.44
61109;BME280;46995;55.740;37.402;2023-04-09T07:09:38;100528.16;;;12.22;48.40
61109;BME280;46995;55.740;37.402;2023-04-09T07:12:05;100525.88;;;12.28;48.19
61109;BME280;46995;55.740;37.402;2023-04-09T07:14:30;100527.44;;;12.42;48.25
61109;BME280;46995;55.740;37.402;2023-04-09T07:16:56;100521.22;;;12.54;47.85
61109;BME280;46995;55.740;37.402;2023-04-09T07:19:22;100527.47;;;12.64;47.72
61109;BME280;46995;55.740;37.402;2023-04-09T07:21:47;100526.50;;;12.77;47.57
61109;BME280;46995;55.740;37.402;2023-04-09T07:24:14;100525.19;;;12.82;47.45
61109;BME280;46995;55.740;37.402;2023-04-09T07:26:40;100526.34;;;12.89;47.61
61109;BME280;46995;55.740;37.402;2023-04-09T07:29:06;100532.88;;;12.96;47.33
61109;BME280;46995;55.740;37.402;2023-04-09T07:31:32;100539.13;;;13.06;47.25
61109;BME280;46995;55.740;37.402;2023-04-09T07:33:58;100529.22;;;13.20;47.07
61109;BME280;46995;55.740;37.402;2023-04-09T07:36:23;100536.56;;;13.27;47.00
61109;BME280;46995;55.740;37.402;2023-04-09T07:38:52;100538.00;;;13.31;46.59
61109;BME280;46995;55.740;37.402;2023-04-09T07:41:20;100538.94;;;13.41;46.94
61109;BME280;46995;55.740;37.402;2023-04-09T07:43:46;100536.75;;;13.46;46.69
61109;BME280;46995;55.740;37.402;2023-04-09T07:46:16;100543.00;;;13.45;46.49
61109;BME280;46995;55.740;37.402;2023-04-09T07:48:42;100535.78;;;13.47;46.33
61109;BME280;46995;55.740;37.402;2023-04-09T07:51:08;100531.19;;;13.49;46.14
61109;BME280;46995;55.740;37.402;2023-04-09T07:53:36;100531.41;;;13.57;46.78
61109;BME280;46995;55.740;37.402;2023-04-09T07:56:01;100526.31;;;13.66;46.33
61109;BME280;46995;55.740;37.402;2023-04-09T07:58:27;100525.94;;;13.70;45.90
61109;BME280;46995;55.740;37.402;2023-04-09T08:00:52;100523.59;;;13.77;45.73
61109;BME280;46995;55.740;37.402;2023-04-09T08:03:19;100516.69;;;13.85;46.21
61109;BME280;46995;55.740;37.402;2023-04-09T08:05:45;100522.56;;;13.89;45.87
61109;BME280;46995;55.740;37.402;2023-04-09T08:08:11;100523.28;;;13.91;45.82
61109;BME280;46995;55.740;37.402;2023-04-09T08:10:36;100514.47;;;13.90;45.28
61109;BME280;46995;55.740;37.402;2023-04-09T08:13:05;100521.16;;;13.85;45.64
61109;BME280;46995;55.740;37.402;2023-04-09T08:15:31;100521.59;;;13.90;45.49
61109;BME280;46995;55.740;37.402;2023-04-09T08:17:59;100511.44;;;13.95;45.69
61109;BME280;46995;55.740;37.402;2023-04-09T08:20:31;100505.59;;;14.01;45.23
61109;BME280;46995;55.740;37.402;2023-04-09T08:22:57;100508.38;;;13.99;45.47
61109;BME280;46995;55.740;37.402;2023-04-09T08:25:23;100513.38;;;13.93;45.64
61109;BME280;46995;55.740;37.402;2023-04-09T08:27:49;100512.78;;;13.89;45.66
61109;BME280;46995;55.740;37.402;2023-04-09T08:30:14;100514.47;;;13.90;45.93
61109;BME280;46995;55.740;37.402;2023-04-09T08:32:40;100508.91;;;13.93;45.44
61109;BME280;46995;55.740;37.402;2023-04-09T08:35:06;100509.22;;;14.00;45.72
61109;BME280;46995;55.740;37.402;2023-04-09T08:37:33;100511.38;;;14.06;45.71
61109;BME280;46995;55.740;37.402;2023-04-09T08:39:58;100505.38;;;14.14;45.51
61109;BME280;46995;55.740;37.402;2023-04-09T08:42:24;100506.56;;;14.21;45.42
61109;BME280;46995;55.740;37.402;2023-04-09T08:44:50;100503.25;;;14.28;45.25
61109;BME280;46995;55.740;37.402;2023-04-09T08:47:16;100506.97;;;14.37;45.09
61109;BME280;46995;55.740;37.402;2023-04-09T08:49:43;100507.97;;;14.46;44.89
61109;BME280;46995;55.740;37.402;2023-04-09T08:52:09;100505.06;;;14.49;44.88
61109;BME280;46995;55.740;37.402;2023-04-09T08:54:35;100497.78;;;14.51;44.69
61109;BME280;46995;55.740;37.402;2023-04-09T08:57:04;100503.09;;;14.51;44.67
61109;BME280;46995;55.740;37.402;2023-04-09T08:59:33;100503.63;;;14.45;44.69
61109;BME280;46995;55.740;37.402;2023-04-09T09:02:08;100498.88;;;14.38;44.11
61109;BME280;46995;55.740;37.402;2023-04-09T09:04:47;100494.88;;;14.33;44.52
61109;BME280;46995;55.740;37.402;2023-04-09T09:07:13;100500.97;;;14.24;44.62
61109;BME280;46995;55.740;37.402;2023-04-09T09:09:55;100500.41;;;14.20;44.72
61109;BME280;46995;55.740;37.402;2023-04-09T09:12:32;100500.78;;;14.16;44.92
61109;BME280;46995;55.740;37.402;2023-04-09T09:14:59;100496.84;;;14.10;45.01
61109;BME280;46995;55.740;37.402;2023-04-09T09:17:25;100492.78;;;14.06;44.46
61109;BME280;46995;55.740;37.402;2023-04-09T09:19:51;100494.06;;;14.12;44.82
61109;BME280;46995;55.740;37.402;2023-04-09T09:22:16;100487.50;;;14.16;44.46
61109;BME280;46995;55.740;37.402;2023-04-09T09:24:45;100486.53;;;14.17;44.75
61109;BME280;46995;55.740;37.402;2023-04-09T09:30:07;100478.69;;;14.15;43.79
61109;BME280;46995;55.740;37.402;2023-04-09T09:32:34;100478.97;;;14.12;44.03
61109;BME280;46995;55.740;37.402;2023-04-09T09:35:03;100474.34;;;14.14;44.22
61109;BME280;46995;55.740;37.402;2023-04-09T09:37:29;100478.69;;;14.15;44.37
61109;BME280;46995;55.740;37.402;2023-04-09T09:39:59;100474.63;;;14.11;44.18
61109;BME280;46995;55.740;37.402;2023-04-09T09:42:25;100464.84;;;14.12;44.09
61109;BME280;46995;55.740;37.402;2023-04-09T09:44:52;100465.41;;;14.15;43.82
61109;BME280;46995;55.740;37.402;2023-04-09T09:47:18;100460.31;;;14.23;44.04
61109;BME280;46995;55.740;37.402;2023-04-09T09:49:50;100474.47;;;14.33;43.58
61109;BME280;46995;55.740;37.402;2023-04-09T09:52:16;100471.47;;;14.48;43.57
61109;BME280;46995;55.740;37.402;2023-04-09T09:54:47;100471.50;;;14.57;43.01
61109;BME280;46995;55.740;37.402;2023-04-09T09:57:14;100479.38;;;14.68;43.23
61109;BME280;46995;55.740;37.402;2023-04-09T09:59:46;100468.53;;;14.81;43.12
61109;BME280;46995;55.740;37.402;2023-04-09T10:02:18;100476.25;;;15.03;42.76
61109;BME280;46995;55.740;37.402;2023-04-09T10:04:49;100470.97;;;15.22;41.87
61109;BME280;46995;55.740;37.402;2023-04-09T10:07:18;100469.72;;;15.26;42.36
61109;BME280;46995;55.740;37.402;2023-04-09T10:09:45;100469.56;;;15.28;41.99
61109;BME280;46995;55.740;37.402;2023-04-09T10:12:16;100461.84;;;15.35;41.75
61109;BME280;46995;55.740;37.402;2023-04-09T10:14:43;100466.63;;;15.50;41.35
61109;BME280;46995;55.740;37.402;2023-04-09T10:17:09;100455.84;;;15.71;41.59
61109;BME280;46995;55.740;37.402;2023-04-09T10:20:04;100458.75;;;15.87;40.98
61109;BME280;46995;55.740;37.402;2023-04-09T10:22:32;100457.63;;;15.99;40.73
61109;BME280;46995;55.740;37.402;2023-04-09T10:24:58;100455.47;;;16.13;41.39
61109;BME280;46995;55.740;37.402;2023-04-09T10:27:24;100453.59;;;16.23;40.75
61109;BME280;46995;55.740;37.402;2023-04-09T10:29:51;100456.94;;;16.34;41.11
61109;BME280;46995;55.740;37.402;2023-04-09T10:32:20;100456.31;;;16.50;40.75
61109;BME280;46995;55.740;37.402;2023-04-09T10:34:47;100460.19;;;16.65;40.40
61109;BME280;46995;55.740;37.402;2023-04-09T10:37:22;100440.75;;;16.82;39.99
61109;BME280;46995;55.740;37.402;2023-04-09T10:39:48;100442.09;;;16.86;40.15
61109;BME280;46995;55.740;37.402;2023-04-09T10:42:22;100442.69;;;16.80;40.50
61109;BME280;46995;55.740;37.402;2023-04-09T10:47:31;100447.56;;;16.67;40.84
61109;BME280;46995;55.740;37.402;2023-04-09T10:49:57;100445.38;;;16.53;41.21
61109;BME280;46995;55.740;37.402;2023-04-09T10:52:28;100444.44;;;16.35;41.18
61109;BME280;46995;55.740;37.402;2023-04-09T10:54:55;100439.34;;;16.14;40.99
61109;BME280;46995;55.740;37.402;2023-04-09T10:57:21;100442.22;;;15.84;40.81
61109;BME280;46995;55.740;37.402;2023-04-09T10:59:53;100436.53;;;15.69;42.01
61109;BME280;46995;55.740;37.402;2023-04-09T11:04:59;100447.28;;;15.39;42.00
61109;BME280;46995;55.740;37.402;2023-04-09T11:07:27;100447.44;;;15.27;41.75
61109;BME280;46995;55.740;37.402;2023-04-09T11:09:54;100446.00;;;15.23;41.30
61109;BME280;46995;55.740;37.402;2023-04-09T11:12:20;100443.94;;;15.17;40.69
61109;BME280;46995;55.740;37.402;2023-04-09T11:14:45;100449.25;;;15.17;41.44
61109;BME280;46995;55.740;37.402;2023-04-09T11:17:11;100449.53;;;15.14;40.71
61109;BME280;46995;55.740;37.402;2023-04-09T11:19:37;100454.59;;;15.17;41.09
61109;BME280;46995;55.740;37.402;2023-04-09T11:22:05;100445.59;;;15.18;40.07
61109;BME280;46995;55.740;37.402;2023-04-09T11:24:44;100444.06;;;15.25;40.07
61109;BME280;46995;55.740;37.402;2023-04-09T11:27:15;100448.53;;;15.35;40.31
61109;BME280;46995;55.740;37.402;2023-04-09T11:29:43;100446.88;;;15.43;40.37
61109;BME280;46995;55.740;37.402;2023-04-09T11:32:09;100443.22;;;15.44;39.96
61109;BME280;46995;55.740;37.402;2023-04-09T11:34:34;100440.41;;;15.46;39.83
61109;BME280;46995;55.740;37.402;2023-04-09T11:37:00;100444.47;;;15.50;39.64
61109;BME280;46995;55.740;37.402;2023-04-09T11:39:31;100453.75;;;15.65;39.76
61109;BME280;46995;55.740;37.402;2023-04-09T11:42:00;100439.03;;;15.80;39.17
61109;BME280;46995;55.740;37.402;2023-04-09T11:44:26;100438.25;;;15.97;39.82
61109;BME280;46995;55.740;37.402;2023-04-09T11:46:51;100432.91;;;16.17;39.20
61109;BME280;46995;55.740;37.402;2023-04-09T11:49:17;100428.75;;;16.32;38.30
61109;BME280;46995;55.740;37.402;2023-04-09T11:51:43;100423.25;;;16.43;38.24
61109;BME280;46995;55.740;37.402;2023-04-09T11:54:08;100419.34;;;16.37;39.52
61109;BME280;46995;55.740;37.402;2023-04-09T11:56:36;100419.84;;;16.14;39.18
61109;BME280;46995;55.740;37.402;2023-04-09T11:59:03;100424.53;;;15.92;38.85
61109;BME280;46995;55.740;37.402;2023-04-09T12:01:32;100411.69;;;15.78;38.81
61109;BME280;46995;55.740;37.402;2023-04-09T12:03:58;100419.56;;;15.70;39.42
61109;BME280;46995;55.740;37.402;2023-04-09T12:06:25;100415.06;;;15.61;39.81
61109;BME280;46995;55.740;37.402;2023-04-09T12:09:00;100416.22;;;15.58;40.01
61109;BME280;46995;55.740;37.402;2023-04-09T12:11:29;100412.00;;;15.56;39.94
61109;BME280;46995;55.740;37.402;2023-04-09T12:13:59;100412.97;;;15.55;40.22
61109;BME280;46995;55.740;37.402;2023-04-09T12:16:26;100405.69;;;15.47;40.00
61109;BME280;46995;55.740;37.402;2023-04-09T12:18:54;100410.59;;;15.42;40.70
61109;BME280;46995;55.740;37.402;2023-04-09T12:21:23;100413.09;;;15.34;39.64
61109;BME280;46995;55.740;37.402;2023-04-09T12:23:48;100411.03;;;15.28;40.22
61109;BME280;46995;55.740;37.402;2023-04-09T12:26:14;100413.41;;;15.21;39.13
61109;BME280;46995;55.740;37.402;2023-04-09T12:28:40;100415.22;;;15.21;40.03
61109;BME280;46995;55.740;37.402;2023-04-09T12:31:08;100409.91;;;15.21;39.99
61109;BME280;46995;55.740;37.402;2023-04-09T12:33:33;100414.50;;;15.19;39.34
61109;BME280;46995;55.740;37.402;2023-04-09T12:36:03;100417.88;;;15.21;39.19
61109;BME280;46995;55.740;37.402;2023-04-09T12:38:28;100413.25;;;15.23;39.52
61109;BME280;46995;55.740;37.402;2023-04-09T12:40:54;100409.06;;;15.20;40.22
61109;BME280;46995;55.740;37.402;2023-04-09T12:43:20;100410.16;;;15.18;39.71
61109;BME280;46995;55.740;37.402;2023-04-09T12:45:45;100416.50;;;15.17;39.72
61109;BME280;46995;55.740;37.402;2023-04-09T12:48:11;100412.28;;;15.14;39.70
61109;BME280;46995;55.740;37.402;2023-04-09T12:50:37;100420.38;;;15.13;39.59
61109;BME280;46995;55.740;37.402;2023-04-09T12:53:02;100419.69;;;15.11;39.76
61109;BME280;46995;55.740;37.402;2023-04-09T12:55:28;100406.66;;;14.98;40.10
61109;BME280;46995;55.740;37.402;2023-04-09T12:57:53;100423.59;;;14.97;40.29
61109;BME280;46995;55.740;37.402;2023-04-09T13:00:19;100423.44;;;14.89;39.99